sensor_id;sensor_type;location;lat;lon;timestamp;temperature;humidity
75927;DHT22;64605;48.296;16.416;2023-03-08T00:00:14;7.20;61.80
75927;DHT22;64605;48.296;16.416;2023-03-08T00:02:40;7.20;61.60
75927;DHT22;64605;48.296;16.416;2023-03-08T00:05:06;7.30;61.30
75927;DHT22;64605;48.296;16.416;2023-03-08T00:07:32;7.30;61.10
75927;DHT22;64605;48.296;16.416;2023-03-08T00:09:58;7.40;60.70
75927;DHT22;64605;48.296;16.416;2023-03-08T00:12:24;7.50;60.60
75927;DHT22;64605;48.296;16.416;2023-03-08T00:14:50;7.50;60.80
75927;DHT22;64605;48.296;16.416;2023-03-08T00:17:17;7.50;59.50
75927;DHT22;64605;48.296;16.416;2023-03-08T00:19:43;7.60;59.10
75927;DHT22;64605;48.296;16.416;2023-03-08T00:22:09;7.70;58.50
75927;DHT22;64605;48.296;16.416;2023-03-08T00:24:35;7.80;57.80
75927;DHT22;64605;48.296;16.416;2023-03-08T00:27:01;7.90;57.50
75927;DHT22;64605;48.296;16.416;2023-03-08T00:29:26;8.00;56.80
75927;DHT22;64605;48.296;16.416;2023-03-08T00:31:52;8.10;56.20
75927;DHT22;64605;48.296;16.416;2023-03-08T00:34:18;8.20;55.70
75927;DHT22;64605;48.296;16.416;2023-03-08T00:36:43;8.30;55.40
75927;DHT22;64605;48.296;16.416;2023-03-08T00:39:10;8.30;54.90
75927;DHT22;64605;48.296;16.416;2023-03-08T00:41:36;8.40;54.50
75927;DHT22;64605;48.296;16.416;2023-03-08T00:44:02;8.50;54.20
75927;DHT22;64605;48.296;16.416;2023-03-08T00:46:28;8.50;53.80
75927;DHT22;64605;48.296;16.416;2023-03-08T00:48:54;8.60;53.50
75927;DHT22;64605;48.296;16.416;2023-03-08T00:51:20;8.60;53.20
75927;DHT22;64605;48.296;16.416;2023-03-08T00:53:48;8.70;52.40
75927;DHT22;64605;48.296;16.416;2023-03-08T00:56:13;8.70;51.90
75927;DHT22;64605;48.296;16.416;2023-03-08T00:58:40;8.80;51.20
75927;DHT22;64605;48.296;16.416;2023-03-08T01:01:07;8.90;50.70
75927;DHT22;64605;48.296;16.416;2023-03-08T01:03:34;8.90;50.20
75927;DHT22;64605;48.296;16.416;2023-03-08T01:06:09;9.00;50.20
75927;DHT22;64605;48.296;16.416;2023-03-08T01:08:35;9.00;49.60
75927;DHT22;64605;48.296;16.416;2023-03-08T01:11:01;9.10;49.10
75927;DHT22;64605;48.296;16.416;2023-03-08T01:13:30;9.10;48.70
75927;DHT22;64605;48.296;16.416;2023-03-08T01:15:56;9.20;48.20
75927;DHT22;64605;48.296;16.416;2023-03-08T01:18:22;9.20;47.40
75927;DHT22;64605;48.296;16.416;2023-03-08T01:21:14;9.20;47.20
75927;DHT22;64605;48.296;16.416;2023-03-08T01:23:40;9.30;46.90
75927;DHT22;64605;48.296;16.416;2023-03-08T01:26:09;9.30;46.60
75927;DHT22;64605;48.296;16.416;2023-03-08T01:28:35;9.30;45.80
75927;DHT22;64605;48.296;16.416;2023-03-08T01:31:13;9.30;46.20
75927;DHT22;64605;48.296;16.416;2023-03-08T01:33:39;9.40;45.90
75927;DHT22;64605;48.296;16.416;2023-03-08T01:36:07;9.40;45.50
75927;DHT22;64605;48.296;16.416;2023-03-08T01:38:33;9.40;45.50
75927;DHT22;64605;48.296;16.416;2023-03-08T01:41:00;9.40;45.20
75927;DHT22;64605;48.296;16.416;2023-03-08T01:43:36;9.40;45.20
75927;DHT22;64605;48.296;16.416;2023-03-08T01:49:17;9.50;44.90
75927;DHT22;64605;48.296;16.416;2023-03-08T01:52:00;9.40;44.70
75927;DHT22;64605;48.296;16.416;2023-03-08T01:54:48;9.40;45.00
75927;DHT22;64605;48.296;16.416;2023-03-08T01:57:26;9.40;44.70
75927;DHT22;64605;48.296;16.416;2023-03-08T01:59:55;9.30;44.80
75927;DHT22;64605;48.296;16.416;2023-03-08T02:02:25;9.30;44.40
75927;DHT22;64605;48.296;16.416;2023-03-08T02:04:52;9.40;44.60
75927;DHT22;64605;48.296;16.416;2023-03-08T02:07:17;9.30;44.50
75927;DHT22;64605;48.296;16.416;2023-03-08T02:09:44;9.40;44.60
75927;DHT22;64605;48.296;16.416;2023-03-08T02:12:11;9.40;44.30
75927;DHT22;64605;48.296;16.416;2023-03-08T02:14:39;9.40;44.40
75927;DHT22;64605;48.296;16.416;2023-03-08T02:17:05;9.30;44.50
75927;DHT22;64605;48.296;16.416;2023-03-08T02:19:52;9.40;44.70
75927;DHT22;64605;48.296;16.416;2023-03-08T02:22:20;9.40;44.80
75927;DHT22;64605;48.296;16.416;2023-03-08T02:24:46;9.40;44.90
75927;DHT22;64605;48.296;16.416;2023-03-08T02:27:22;9.40;45.10
75927;DHT22;64605;48.296;16.416;2023-03-08T02:29:48;9.40;45.10
75927;DHT22;64605;48.296;16.416;2023-03-08T02:32:14;9.40;45.30
75927;DHT22;64605;48.296;16.416;2023-03-08T02:34:40;9.40;45.40
75927;DHT22;64605;48.296;16.416;2023-03-08T02:37:06;9.40;45.50
75927;DHT22;64605;48.296;16.416;2023-03-08T02:39:32;9.40;45.50
75927;DHT22;64605;48.296;16.416;2023-03-08T02:41:57;9.30;45.80
75927;DHT22;64605;48.296;16.416;2023-03-08T02:44:23;9.30;45.80
75927;DHT22;64605;48.296;16.416;2023-03-08T02:46:49;9.30;45.90
75927;DHT22;64605;48.296;16.416;2023-03-08T02:49:15;9.30;46.00
75927;DHT22;64605;48.296;16.416;2023-03-08T02:51:41;9.30;46.20
75927;DHT22;64605;48.296;16.416;2023-03-08T02:54:06;9.30;46.40
75927;DHT22;64605;48.296;16.416;2023-03-08T02:56:32;9.30;46.60
75927;DHT22;64605;48.296;16.416;2023-03-08T02:58:58;9.30;46.70
75927;DHT22;64605;48.296;16.416;2023-03-08T03:01:23;9.30;46.90
75927;DHT22;64605;48.296;16.416;2023-03-08T03:03:53;9.20;47.10
75927;DHT22;64605;48.296;16.416;2023-03-08T03:06:20;9.20;47.20
75927;DHT22;64605;48.296;16.416;2023-03-08T03:08:46;9.10;47.50
75927;DHT22;64605;48.296;16.416;2023-03-08T03:11:18;9.10;47.70
75927;DHT22;64605;48.296;16.416;2023-03-08T03:13:44;9.10;47.80
75927;DHT22;64605;48.296;16.416;2023-03-08T03:16:13;9.00;48.00
75927;DHT22;64605;48.296;16.416;2023-03-08T03:18:40;9.00;48.20
75927;DHT22;64605;48.296;16.416;2023-03-08T03:21:09;9.00;48.20
75927;DHT22;64605;48.296;16.416;2023-03-08T03:23:36;9.00;48.20
75927;DHT22;64605;48.296;16.416;2023-03-08T03:26:06;9.00;48.20
75927;DHT22;64605;48.296;16.416;2023-03-08T03:28:31;9.00;47.90
75927;DHT22;64605;48.296;16.416;2023-03-08T03:30:58;9.00;47.60
75927;DHT22;64605;48.296;16.416;2023-03-08T03:33:23;9.10;47.60
75927;DHT22;64605;48.296;16.416;2023-03-08T03:35:49;9.00;47.50
75927;DHT22;64605;48.296;16.416;2023-03-08T03:38:15;9.10;47.30
75927;DHT22;64605;48.296;16.416;2023-03-08T03:40:40;9.10;47.30
75927;DHT22;64605;48.296;16.416;2023-03-08T03:43:06;9.10;47.10
75927;DHT22;64605;48.296;16.416;2023-03-08T03:45:32;9.10;46.90
75927;DHT22;64605;48.296;16.416;2023-03-08T03:47:57;9.20;46.70
75927;DHT22;64605;48.296;16.416;2023-03-08T03:50:23;9.20;46.70
75927;DHT22;64605;48.296;16.416;2023-03-08T03:52:49;9.20;46.70
75927;DHT22;64605;48.296;16.416;2023-03-08T03:55:14;9.30;46.50
75927;DHT22;64605;48.296;16.416;2023-03-08T03:57:40;9.20;46.30
75927;DHT22;64605;48.296;16.416;2023-03-08T04:00:07;9.30;46.10
75927;DHT22;64605;48.296;16.416;2023-03-08T04:02:33;9.20;45.70
75927;DHT22;64605;48.296;16.416;2023-03-08T04:04:59;9.20;45.70
75927;DHT22;64605;48.296;16.416;2023-03-08T04:07:24;9.10;45.70
75927;DHT22;64605;48.296;16.416;2023-03-08T04:09:50;9.10;45.60
75927;DHT22;64605;48.296;16.416;2023-03-08T04:12:15;9.10;45.70
75927;DHT22;64605;48.296;16.416;2023-03-08T04:14:41;9.10;45.20
75927;DHT22;64605;48.296;16.416;2023-03-08T04:17:07;9.10;45.30
75927;DHT22;64605;48.296;16.416;2023-03-08T04:19:33;9.10;45.20
75927;DHT22;64605;48.296;16.416;2023-03-08T04:21:58;9.10;45.00
75927;DHT22;64605;48.296;16.416;2023-03-08T04:24:24;9.10;44.80
75927;DHT22;64605;48.296;16.416;2023-03-08T04:26:50;9.10;45.00
75927;DHT22;64605;48.296;16.416;2023-03-08T04:29:15;9.10;44.90
75927;DHT22;64605;48.296;16.416;2023-03-08T04:31:41;9.00;44.80
75927;DHT22;64605;48.296;16.416;2023-03-08T04:34:07;9.00;45.10
75927;DHT22;64605;48.296;16.416;2023-03-08T04:36:32;8.90;45.10
75927;DHT22;64605;48.296;16.416;2023-03-08T04:38:58;8.90;45.20
75927;DHT22;64605;48.296;16.416;2023-03-08T04:41:24;8.80;45.10
75927;DHT22;64605;48.296;16.416;2023-03-08T04:43:55;8.80;45.20
75927;DHT22;64605;48.296;16.416;2023-03-08T04:46:23;8.70;45.40
75927;DHT22;64605;48.296;16.416;2023-03-08T04:48:50;8.60;45.40
75927;DHT22;64605;48.296;16.416;2023-03-08T04:51:22;8.60;45.00
75927;DHT22;64605;48.296;16.416;2023-03-08T04:53:48;8.60;45.20
75927;DHT22;64605;48.296;16.416;2023-03-08T04:56:15;8.60;45.30
75927;DHT22;64605;48.296;16.416;2023-03-08T04:58:41;8.60;45.20
75927;DHT22;64605;48.296;16.416;2023-03-08T05:01:12;8.50;45.30
75927;DHT22;64605;48.296;16.416;2023-03-08T05:03:38;8.50;45.40
75927;DHT22;64605;48.296;16.416;2023-03-08T05:06:04;8.50;45.30
75927;DHT22;64605;48.296;16.416;2023-03-08T05:08:30;8.50;45.40
75927;DHT22;64605;48.296;16.416;2023-03-08T05:10:58;8.40;45.40
75927;DHT22;64605;48.296;16.416;2023-03-08T05:13:28;8.40;45.50
75927;DHT22;64605;48.296;16.416;2023-03-08T05:15:54;8.50;45.60
75927;DHT22;64605;48.296;16.416;2023-03-08T05:18:20;8.40;45.60
75927;DHT22;64605;48.296;16.416;2023-03-08T05:20:56;8.40;45.70
75927;DHT22;64605;48.296;16.416;2023-03-08T05:23:23;8.30;45.80
75927;DHT22;64605;48.296;16.416;2023-03-08T05:25:54;8.30;45.90
75927;DHT22;64605;48.296;16.416;2023-03-08T05:28:21;8.30;46.10
75927;DHT22;64605;48.296;16.416;2023-03-08T05:30:47;8.30;46.20
75927;DHT22;64605;48.296;16.416;2023-03-08T05:33:14;8.40;46.20
75927;DHT22;64605;48.296;16.416;2023-03-08T05:35:39;8.30;46.10
75927;DHT22;64605;48.296;16.416;2023-03-08T05:38:05;8.40;46.10
75927;DHT22;64605;48.296;16.416;2023-03-08T05:40:31;8.40;46.20
75927;DHT22;64605;48.296;16.416;2023-03-08T05:42:56;8.40;46.20
75927;DHT22;64605;48.296;16.416;2023-03-08T05:45:22;8.30;46.20
75927;DHT22;64605;48.296;16.416;2023-03-08T05:47:48;8.30;46.40
75927;DHT22;64605;48.296;16.416;2023-03-08T05:50:13;8.30;46.60
75927;DHT22;64605;48.296;16.416;2023-03-08T05:52:39;8.30;46.70
75927;DHT22;64605;48.296;16.416;2023-03-08T05:55:07;8.30;46.60
75927;DHT22;64605;48.296;16.416;2023-03-08T05:57:33;8.30;46.60
75927;DHT22;64605;48.296;16.416;2023-03-08T05:59:59;8.40;46.70
75927;DHT22;64605;48.296;16.416;2023-03-08T06:02:24;8.40;46.70
75927;DHT22;64605;48.296;16.416;2023-03-08T06:04:50;8.40;46.80
75927;DHT22;64605;48.296;16.416;2023-03-08T06:07:15;8.50;46.80
75927;DHT22;64605;48.296;16.416;2023-03-08T06:09:42;8.60;46.80
75927;DHT22;64605;48.296;16.416;2023-03-08T06:12:08;8.60;46.70
75927;DHT22;64605;48.296;16.416;2023-03-08T06:14:33;8.70;46.60
75927;DHT22;64605;48.296;16.416;2023-03-08T06:16:59;8.80;46.60
75927;DHT22;64605;48.296;16.416;2023-03-08T06:19:24;8.90;46.50
75927;DHT22;64605;48.296;16.416;2023-03-08T06:21:50;9.00;46.40
75927;DHT22;64605;48.296;16.416;2023-03-08T06:24:16;9.10;46.10
75927;DHT22;64605;48.296;16.416;2023-03-08T06:26:41;9.20;45.90
75927;DHT22;64605;48.296;16.416;2023-03-08T06:29:07;9.20;45.70
75927;DHT22;64605;48.296;16.416;2023-03-08T06:31:32;9.30;45.70
75927;DHT22;64605;48.296;16.416;2023-03-08T06:33:58;9.40;45.50
75927;DHT22;64605;48.296;16.416;2023-03-08T06:36:24;9.40;45.40
75927;DHT22;64605;48.296;16.416;2023-03-08T06:38:49;9.50;45.50
75927;DHT22;64605;48.296;16.416;2023-03-08T06:41:17;9.60;45.20
75927;DHT22;64605;48.296;16.416;2023-03-08T06:43:44;9.70;45.00
75927;DHT22;64605;48.296;16.416;2023-03-08T06:46:12;9.80;44.40
75927;DHT22;64605;48.296;16.416;2023-03-08T06:48:38;9.80;43.60
75927;DHT22;64605;48.296;16.416;2023-03-08T06:51:05;9.90;43.70
75927;DHT22;64605;48.296;16.416;2023-03-08T06:53:32;10.00;43.80
75927;DHT22;64605;48.296;16.416;2023-03-08T06:56:00;10.10;43.60
75927;DHT22;64605;48.296;16.416;2023-03-08T06:58:27;10.20;43.40
75927;DHT22;64605;48.296;16.416;2023-03-08T07:00:53;10.30;43.30
75927;DHT22;64605;48.296;16.416;2023-03-08T07:03:19;10.40;42.90
75927;DHT22;64605;48.296;16.416;2023-03-08T07:05:45;10.50;42.60
75927;DHT22;64605;48.296;16.416;2023-03-08T07:08:10;10.70;42.60
75927;DHT22;64605;48.296;16.416;2023-03-08T07:10:36;10.90;42.00
75927;DHT22;64605;48.296;16.416;2023-03-08T07:13:02;11.20;41.80
75927;DHT22;64605;48.296;16.416;2023-03-08T07:15:28;11.30;40.70
75927;DHT22;64605;48.296;16.416;2023-03-08T07:17:55;11.30;40.20
75927;DHT22;64605;48.296;16.416;2023-03-08T07:20:22;11.40;40.40
75927;DHT22;64605;48.296;16.416;2023-03-08T07:22:48;11.60;40.00
75927;DHT22;64605;48.296;16.416;2023-03-08T07:25:16;11.80;39.60
75927;DHT22;64605;48.296;16.416;2023-03-08T07:27:42;12.20;39.10
75927;DHT22;64605;48.296;16.416;2023-03-08T07:30:09;12.60;38.60
75927;DHT22;64605;48.296;16.416;2023-03-08T07:32:36;13.60;38.30
75927;DHT22;64605;48.296;16.416;2023-03-08T07:35:04;15.00;35.50
75927;DHT22;64605;48.296;16.416;2023-03-08T07:37:30;17.00;33.00
75927;DHT22;64605;48.296;16.416;2023-03-08T07:39:56;19.70;29.90
75927;DHT22;64605;48.296;16.416;2023-03-08T07:42:21;22.90;26.70
75927;DHT22;64605;48.296;16.416;2023-03-08T07:44:47;25.70;23.60
75927;DHT22;64605;48.296;16.416;2023-03-08T07:47:13;28.20;21.00
75927;DHT22;64605;48.296;16.416;2023-03-08T07:49:39;30.10;19.60
75927;DHT22;64605;48.296;16.416;2023-03-08T07:52:05;32.00;18.70
75927;DHT22;64605;48.296;16.416;2023-03-08T07:54:31;33.60;16.90
75927;DHT22;64605;48.296;16.416;2023-03-08T07:56:56;34.90;15.80
75927;DHT22;64605;48.296;16.416;2023-03-08T07:59:23;36.00;15.10
75927;DHT22;64605;48.296;16.416;2023-03-08T08:01:48;36.80;13.80
75927;DHT22;64605;48.296;16.416;2023-03-08T08:04:14;37.20;13.60
75927;DHT22;64605;48.296;16.416;2023-03-08T08:06:40;37.80;13.20
75927;DHT22;64605;48.296;16.416;2023-03-08T08:09:07;38.70;12.90
75927;DHT22;64605;48.296;16.416;2023-03-08T08:11:33;39.30;11.90
75927;DHT22;64605;48.296;16.416;2023-03-08T08:14:03;39.50;11.60
75927;DHT22;64605;48.296;16.416;2023-03-08T08:16:28;38.50;11.60
75927;DHT22;64605;48.296;16.416;2023-03-08T08:18:54;37.10;12.00
75927;DHT22;64605;48.296;16.416;2023-03-08T08:21:20;36.00;12.30
75927;DHT22;64605;48.296;16.416;2023-03-08T08:23:46;35.60;12.70
75927;DHT22;64605;48.296;16.416;2023-03-08T08:26:17;35.50;12.50
75927;DHT22;64605;48.296;16.416;2023-03-08T08:28:45;35.00;12.80
75927;DHT22;64605;48.296;16.416;2023-03-08T08:31:14;35.10;12.90
75927;DHT22;64605;48.296;16.416;2023-03-08T08:33:40;35.50;12.60
75927;DHT22;64605;48.296;16.416;2023-03-08T08:36:08;35.70;12.40
75927;DHT22;64605;48.296;16.416;2023-03-08T08:38:35;35.20;12.30
75927;DHT22;64605;48.296;16.416;2023-03-08T08:41:03;35.20;12.30
75927;DHT22;64605;48.296;16.416;2023-03-08T08:43:29;35.10;12.30
75927;DHT22;64605;48.296;16.416;2023-03-08T08:45:57;34.70;12.30
75927;DHT22;64605;48.296;16.416;2023-03-08T08:48:23;34.40;12.30
75927;DHT22;64605;48.296;16.416;2023-03-08T08:50:50;34.00;12.50
75927;DHT22;64605;48.296;16.416;2023-03-08T08:53:17;33.60;13.00
75927;DHT22;64605;48.296;16.416;2023-03-08T08:55:43;33.20;13.20
75927;DHT22;64605;48.296;16.416;2023-03-08T08:58:09;32.70;13.10
75927;DHT22;64605;48.296;16.416;2023-03-08T09:00:35;31.90;13.30
75927;DHT22;64605;48.296;16.416;2023-03-08T09:03:01;30.70;13.60
75927;DHT22;64605;48.296;16.416;2023-03-08T09:05:28;29.50;14.30
75927;DHT22;64605;48.296;16.416;2023-03-08T09:07:55;28.80;14.80
75927;DHT22;64605;48.296;16.416;2023-03-08T09:10:28;28.70;15.40
75927;DHT22;64605;48.296;16.416;2023-03-08T09:12:55;28.80;15.10
75927;DHT22;64605;48.296;16.416;2023-03-08T09:15:21;28.80;14.80
75927;DHT22;64605;48.296;16.416;2023-03-08T09:17:48;29.00;15.10
75927;DHT22;64605;48.296;16.416;2023-03-08T09:20:14;29.00;15.30
75927;DHT22;64605;48.296;16.416;2023-03-08T09:22:40;28.60;15.30
75927;DHT22;64605;48.296;16.416;2023-03-08T09:25:07;27.70;14.90
75927;DHT22;64605;48.296;16.416;2023-03-08T09:27:33;26.80;15.50
75927;DHT22;64605;48.296;16.416;2023-03-08T09:29:59;26.10;16.10
75927;DHT22;64605;48.296;16.416;2023-03-08T09:32:25;25.60;16.50
75927;DHT22;64605;48.296;16.416;2023-03-08T09:34:51;25.30;16.70
75927;DHT22;64605;48.296;16.416;2023-03-08T09:37:17;24.90;17.10
75927;DHT22;64605;48.296;16.416;2023-03-08T09:39:44;24.70;17.30
75927;DHT22;64605;48.296;16.416;2023-03-08T09:42:20;24.50;17.70
75927;DHT22;64605;48.296;16.416;2023-03-08T09:52:52;23.50;19.00
75927;DHT22;64605;48.296;16.416;2023-03-08T09:55:24;23.60;17.90
75927;DHT22;64605;48.296;16.416;2023-03-08T09:57:57;23.50;18.40
75927;DHT22;64605;48.296;16.416;2023-03-08T10:00:35;23.40;18.40
75927;DHT22;64605;48.296;16.416;2023-03-08T10:05:52;23.10;18.30
75927;DHT22;64605;48.296;16.416;2023-03-08T10:08:34;22.70;18.80
75927;DHT22;64605;48.296;16.416;2023-03-08T10:11:11;22.40;18.80
75927;DHT22;64605;48.296;16.416;2023-03-08T10:13:50;22.00;19.10
75927;DHT22;64605;48.296;16.416;2023-03-08T10:16:23;21.60;19.40
75927;DHT22;64605;48.296;16.416;2023-03-08T10:19:04;21.30;19.90
75927;DHT22;64605;48.296;16.416;2023-03-08T10:21:32;20.90;20.20
75927;DHT22;64605;48.296;16.416;2023-03-08T10:27:19;19.90;21.40
75927;DHT22;64605;48.296;16.416;2023-03-08T10:29:55;19.50;21.40
75927;DHT22;64605;48.296;16.416;2023-03-08T10:32:22;19.10;22.00
75927;DHT22;64605;48.296;16.416;2023-03-08T10:34:48;18.70;22.40
75927;DHT22;64605;48.296;16.416;2023-03-08T10:37:15;18.50;23.60
75927;DHT22;64605;48.296;16.416;2023-03-08T10:39:52;18.30;23.10
75927;DHT22;64605;48.296;16.416;2023-03-08T10:42:22;18.00;23.70
75927;DHT22;64605;48.296;16.416;2023-03-08T10:49:46;17.50;24.30
75927;DHT22;64605;48.296;16.416;2023-03-08T10:52:26;17.30;24.60
75927;DHT22;64605;48.296;16.416;2023-03-08T10:55:09;17.40;24.90
75927;DHT22;64605;48.296;16.416;2023-03-08T10:57:36;17.40;24.90
75927;DHT22;64605;48.296;16.416;2023-03-08T11:02:46;17.40;25.20
75927;DHT22;64605;48.296;16.416;2023-03-08T11:05:24;17.40;25.50
75927;DHT22;64605;48.296;16.416;2023-03-08T11:07:56;17.20;25.90
75927;DHT22;64605;48.296;16.416;2023-03-08T11:10:24;17.30;26.10
75927;DHT22;64605;48.296;16.416;2023-03-08T11:15:27;17.90;25.90
75927;DHT22;64605;48.296;16.416;2023-03-08T11:21:11;19.20;24.70
75927;DHT22;64605;48.296;16.416;2023-03-08T11:23:51;19.50;24.20
75927;DHT22;64605;48.296;16.416;2023-03-08T11:26:31;19.40;24.20
75927;DHT22;64605;48.296;16.416;2023-03-08T11:29:10;19.30;24.30
75927;DHT22;64605;48.296;16.416;2023-03-08T11:32:28;19.20;24.80
75927;DHT22;64605;48.296;16.416;2023-03-08T11:37:45;18.80;25.20
75927;DHT22;64605;48.296;16.416;2023-03-08T11:50:48;18.50;26.50
75927;DHT22;64605;48.296;16.416;2023-03-08T11:53:17;18.10;27.10
75927;DHT22;64605;48.296;16.416;2023-03-08T12:00:41;17.30;28.40
75927;DHT22;64605;48.296;16.416;2023-03-08T12:03:30;17.10;28.80
75927;DHT22;64605;48.296;16.416;2023-03-08T12:06:09;16.90;29.30
75927;DHT22;64605;48.296;16.416;2023-03-08T12:11:31;16.60;29.90
75927;DHT22;64605;48.296;16.416;2023-03-08T12:19:38;15.90;32.10
75927;DHT22;64605;48.296;16.416;2023-03-08T12:28:30;15.30;33.60
75927;DHT22;64605;48.296;16.416;2023-03-08T12:33:19;15.00;34.70
75927;DHT22;64605;48.296;16.416;2023-03-08T12:35:56;15.00;34.70
75927;DHT22;64605;48.296;16.416;2023-03-08T12:40:53;14.90;34.90
75927;DHT22;64605;48.296;16.416;2023-03-08T12:48:54;14.40;35.80
75927;DHT22;64605;48.296;16.416;2023-03-08T12:51:30;14.30;36.10
75927;DHT22;64605;48.296;16.416;2023-03-08T12:54:02;14.20;36.50
75927;DHT22;64605;48.296;16.416;2023-03-08T12:56:50;14.10;37.10
75927;DHT22;64605;48.296;16.416;2023-03-08T13:01:46;13.60;38.90
75927;DHT22;64605;48.296;16.416;2023-03-08T13:04:36;13.30;40.20
75927;DHT22;64605;48.296;16.416;2023-03-08T13:09:44;13.60;40.40
75927;DHT22;64605;48.296;16.416;2023-03-08T13:17:37;13.90;39.90
75927;DHT22;64605;48.296;16.416;2023-03-08T13:22:59;14.00;39.70
75927;DHT22;64605;48.296;16.416;2023-03-08T13:28:12;13.70;40.00
75927;DHT22;64605;48.296;16.416;2023-03-08T13:31:01;13.30;40.80
75927;DHT22;64605;48.296;16.416;2023-03-08T13:33:29;13.20;41.20
75927;DHT22;64605;48.296;16.416;2023-03-08T13:36:00;13.00;41.80
75927;DHT22;64605;48.296;16.416;2023-03-08T13:38:29;13.00;42.00
75927;DHT22;64605;48.296;16.416;2023-03-08T13:40:57;13.30;41.80
75927;DHT22;64605;48.296;16.416;2023-03-08T13:43:28;13.40;41.20
75927;DHT22;64605;48.296;16.416;2023-03-08T13:45:56;13.40;40.90
75927;DHT22;64605;48.296;16.416;2023-03-08T13:48:23;13.30;41.70
75927;DHT22;64605;48.296;16.416;2023-03-08T13:50:51;13.40;41.20
75927;DHT22;64605;48.296;16.416;2023-03-08T13:53:23;13.40;41.10
75927;DHT22;64605;48.296;16.416;2023-03-08T13:55:52;13.60;40.90
75927;DHT22;64605;48.296;16.416;2023-03-08T13:58:37;13.70;40.70
75927;DHT22;64605;48.296;16.416;2023-03-08T14:03:36;13.90;40.40
75927;DHT22;64605;48.296;16.416;2023-03-08T14:06:02;14.00;40.10
75927;DHT22;64605;48.296;16.416;2023-03-08T14:08:28;14.30;39.80
75927;DHT22;64605;48.296;16.416;2023-03-08T14:11:00;14.50;39.10
75927;DHT22;64605;48.296;16.416;2023-03-08T14:15:58;14.40;39.30
75927;DHT22;64605;48.296;16.416;2023-03-08T14:18:28;14.30;39.50
75927;DHT22;64605;48.296;16.416;2023-03-08T14:23:44;14.30;39.60
75927;DHT22;64605;48.296;16.416;2023-03-08T14:26:35;14.60;39.50
75927;DHT22;64605;48.296;16.416;2023-03-08T14:36:57;14.80;39.10
75927;DHT22;64605;48.296;16.416;2023-03-08T14:39:25;14.60;39.60
75927;DHT22;64605;48.296;16.416;2023-03-08T14:41:52;14.50;40.00
75927;DHT22;64605;48.296;16.416;2023-03-08T14:44:26;14.50;40.20
75927;DHT22;64605;48.296;16.416;2023-03-08T14:46:53;14.50;40.40
75927;DHT22;64605;48.296;16.416;2023-03-08T14:49:26;14.50;40.60
75927;DHT22;64605;48.296;16.416;2023-03-08T14:51:53;14.70;40.40
75927;DHT22;64605;48.296;16.416;2023-03-08T14:54:28;14.90;40.20
75927;DHT22;64605;48.296;16.416;2023-03-08T14:56:55;15.00;40.30
75927;DHT22;64605;48.296;16.416;2023-03-08T14:59:21;14.90;40.40
75927;DHT22;64605;48.296;16.416;2023-03-08T15:01:48;14.90;40.50
75927;DHT22;64605;48.296;16.416;2023-03-08T15:04:22;14.90;40.60
75927;DHT22;64605;48.296;16.416;2023-03-08T15:06:49;14.90;40.70
75927;DHT22;64605;48.296;16.416;2023-03-08T15:09:18;14.90;41.00
75927;DHT22;64605;48.296;16.416;2023-03-08T15:11:45;14.90;41.10
75927;DHT22;64605;48.296;16.416;2023-03-08T15:14:12;15.00;40.90
75927;DHT22;64605;48.296;16.416;2023-03-08T15:16:38;15.20;40.90
75927;DHT22;64605;48.296;16.416;2023-03-08T15:19:05;15.10;41.10
75927;DHT22;64605;48.296;16.416;2023-03-08T15:21:31;15.20;41.00
75927;DHT22;64605;48.296;16.416;2023-03-08T15:23:57;15.20;40.90
75927;DHT22;64605;48.296;16.416;2023-03-08T15:26:26;15.30;40.80
75927;DHT22;64605;48.296;16.416;2023-03-08T15:28:53;15.30;40.80
75927;DHT22;64605;48.296;16.416;2023-03-08T15:31:18;15.30;40.90
75927;DHT22;64605;48.296;16.416;2023-03-08T15:33:44;15.30;41.00
75927;DHT22;64605;48.296;16.416;2023-03-08T15:36:13;15.40;41.00
75927;DHT22;64605;48.296;16.416;2023-03-08T15:38:39;15.30;41.10
75927;DHT22;64605;48.296;16.416;2023-03-08T15:41:05;15.20;41.40
75927;DHT22;64605;48.296;16.416;2023-03-08T15:43:30;15.20;41.40
75927;DHT22;64605;48.296;16.416;2023-03-08T15:45:58;15.30;41.40
75927;DHT22;64605;48.296;16.416;2023-03-08T15:48:24;15.40;41.20
75927;DHT22;64605;48.296;16.416;2023-03-08T15:50:49;15.50;41.00
75927;DHT22;64605;48.296;16.416;2023-03-08T15:53:15;15.50;41.00
75927;DHT22;64605;48.296;16.416;2023-03-08T15:55:41;15.40;41.30
75927;DHT22;64605;48.296;16.416;2023-03-08T15:58:07;15.30;41.50
75927;DHT22;64605;48.296;16.416;2023-03-08T16:00:33;15.30;41.80
75927;DHT22;64605;48.296;16.416;2023-03-08T16:02:59;15.20;42.00
75927;DHT22;64605;48.296;16.416;2023-03-08T16:05:25;15.10;42.10
75927;DHT22;64605;48.296;16.416;2023-03-08T16:08:02;15.10;42.10
75927;DHT22;64605;48.296;16.416;2023-03-08T16:10:30;15.10;42.30
75927;DHT22;64605;48.296;16.416;2023-03-08T16:12:57;15.10;42.10
75927;DHT22;64605;48.296;16.416;2023-03-08T16:15:23;15.10;42.10
75927;DHT22;64605;48.296;16.416;2023-03-08T16:17:49;15.20;42.10
75927;DHT22;64605;48.296;16.416;2023-03-08T16:20:15;15.10;42.30
75927;DHT22;64605;48.296;16.416;2023-03-08T16:22:41;15.20;42.60
75927;DHT22;64605;48.296;16.416;2023-03-08T16:25:09;15.20;42.70
75927;DHT22;64605;48.296;16.416;2023-03-08T16:27:35;15.20;42.90
75927;DHT22;64605;48.296;16.416;2023-03-08T16:30:00;15.20;42.90
75927;DHT22;64605;48.296;16.416;2023-03-08T16:32:26;15.10;42.60
75927;DHT22;64605;48.296;16.416;2023-03-08T16:34:57;15.10;42.70
75927;DHT22;64605;48.296;16.416;2023-03-08T16:37:23;15.10;43.00
75927;DHT22;64605;48.296;16.416;2023-03-08T16:39:49;15.10;43.10
75927;DHT22;64605;48.296;16.416;2023-03-08T16:42:16;15.10;43.10
75927;DHT22;64605;48.296;16.416;2023-03-08T16:44:48;15.00;43.30
75927;DHT22;64605;48.296;16.416;2023-03-08T16:47:15;15.00;43.90
75927;DHT22;64605;48.296;16.416;2023-03-08T16:49:41;14.90;44.00
75927;DHT22;64605;48.296;16.416;2023-03-08T16:52:07;14.90;43.90
75927;DHT22;64605;48.296;16.416;2023-03-08T16:54:33;14.80;44.30
75927;DHT22;64605;48.296;16.416;2023-03-08T16:56:58;14.70;44.50
75927;DHT22;64605;48.296;16.416;2023-03-08T16:59:24;14.60;44.40
75927;DHT22;64605;48.296;16.416;2023-03-08T17:01:50;14.50;44.50
75927;DHT22;64605;48.296;16.416;2023-03-08T17:04:15;14.40;45.00
75927;DHT22;64605;48.296;16.416;2023-03-08T17:06:45;14.30;45.20
75927;DHT22;64605;48.296;16.416;2023-03-08T17:09:11;14.20;45.50
75927;DHT22;64605;48.296;16.416;2023-03-08T17:11:37;14.10;45.80
75927;DHT22;64605;48.296;16.416;2023-03-08T17:14:08;14.00;46.00